Time,TemperatureF,DewpointF,PressureIn,WindDirection,WindDirectionDegrees,WindSpeedMPH,WindSpeedGustMPH,Humidity,HourlyPrecipIn,Conditions,Clouds,dailyrainin,SoftwareType,DateUTC
2013-04-08 00:02:00,31.0,30.0,-100.00,WNW,300,8.0,12.0,96,-99.99,,,-99.99,,2013-04-08 06:02:00,
2013-04-08 00:12:00,31.0,30.0,-100.00,WNW,295,7.0,12.0,96,-99.99,,,-99.99,,2013-04-08 06:12:00,
2013-04-08 00:22:00,31.0,30.0,-100.00,WNW,295,10.0,12.0,96,-99.99,,,-99.99,,2013-04-08 06:22:00,
2013-04-08 00:32:00,31.0,30.0,-100.00,WNW,290,9.0,12.0,95,-99.99,,,-99.99,,2013-04-08 06:32:00,
2013-04-08 00:42:00,31.0,30.0,-100.00,WNW,290,9.0,10.0,95,-99.99,,,-99.99,,2013-04-08 06:42:00,
2013-04-08 00:52:00,32.0,30.0,-100.00,WNW,295,7.0,11.0,93,-99.99,,,-99.99,,2013-04-08 06:52:00,
2013-04-08 01:02:00,31.0,29.0,-100.00,NW,320,4.0,9.0,93,-99.99,,,-99.99,,2013-04-08 07:02:00,
2013-04-08 01:12:00,31.0,30.0,-100.00,NW,315,6.0,8.0,95,-99.99,,,-99.99,,2013-04-08 07:12:00,
2013-04-08 01:22:00,31.0,30.0,-100.00,NW,315,6.0,7.0,93,-99.99,,,-99.99,,2013-04-08 07:22:00,
2013-04-08 01:33:00,31.0,30.0,-100.00,NW,315,6.0,7.0,93,-99.99,,,-99.99,,2013-04-08 07:33:00,
2013-04-08 01:42:00,33.0,29.0,-100.00,WNW,285,3.0,7.0,83,-99.99,,,-99.99,,2013-04-08 07:42:00,
2013-04-08 01:52:00,34.0,28.0,-100.00,West,270,4.0,6.0,80,-99.99,,,-99.99,,2013-04-08 07:52:00,
2013-04-08 02:02:00,34.0,26.0,-100.00,WNW,285,4.0,6.0,70,-99.99,,,-99.99,,2013-04-08 08:02:00,
2013-04-08 02:12:00,34.0,26.0,-100.00,WNW,285,4.0,6.0,70,-99.99,,,-99.99,,2013-04-08 08:12:00,
2013-04-08 02:22:00,34.0,25.0,-100.00,WNW,295,4.0,6.0,69,-99.99,,,-99.99,,2013-04-08 08:22:00,
2013-04-08 02:32:00,34.0,24.0,-100.00,WNW,300,4.0,6.0,68,-99.99,,,-99.99,,2013-04-08 08:32:00,
2013-04-08 02:42:00,33.0,23.0,-100.00,North,0,4.0,6.0,67,-99.99,,,-99.99,,2013-04-08 08:42:00,
2013-04-08 02:52:00,34.0,24.0,-100.00,WNW,285,2.0,3.0,65,-99.99,,,-99.99,,2013-04-08 08:52:00,
2013-04-08 03:02:00,35.0,22.0,-100.00,SW,235,6.0,7.0,59,-99.99,,,-99.99,,2013-04-08 09:02:00,
2013-04-08 03:12:00,35.0,22.0,-100.00,SW,235,6.0,7.0,59,-99.99,,,-99.99,,2013-04-08 09:12:00,
2013-04-08 03:22:00,34.0,22.0,-100.00,SSW,205,6.0,7.0,59,-99.99,,,-99.99,,2013-04-08 09:22:00,
2013-04-08 03:33:00,33.0,21.0,-100.00,South,180,3.0,6.0,61,-99.99,,,-99.99,,2013-04-08 09:33:00,
2013-04-08 03:42:00,31.0,21.0,-100.00,South,170,4.0,5.0,65,-99.99,,,-99.99,,2013-04-08 09:42:00,
2013-04-08 03:52:00,31.0,21.0,-100.00,South,185,4.0,6.0,67,-99.99,,,-99.99,,2013-04-08 09:52:00,
2013-04-08 04:03:00,33.0,21.0,-100.00,SSW,200,6.0,8.0,60,-99.99,,,-99.99,,2013-04-08 10:03:00,
2013-04-08 04:13:00,33.0,19.0,-100.00,SSW,205,7.0,9.0,55,-99.99,,,-99.99,,2013-04-08 10:13:00,
2013-04-08 04:23:00,34.0,18.0,-100.00,SSW,210,9.0,13.0,50,-99.99,,,-99.99,,2013-04-08 10:23:00,
2013-04-08 04:33:00,35.0,17.0,-100.00,SSW,210,7.0,12.0,48,-99.99,,,-99.99,,2013-04-08 10:33:00,
2013-04-08 04:52:00,34.0,16.0,-100.00,SSW,205,6.0,9.0,47,-99.99,,,-99.99,,2013-04-08 10:52:00,
2013-04-08 05:02:00,35.0,17.0,-100.00,SSW,210,6.0,8.0,47,-99.99,,,-99.99,,2013-04-08 11:02:00,
2013-04-08 05:12:00,35.0,17.0,-100.00,SSW,210,4.0,6.0,45,-99.99,,,-99.99,,2013-04-08 11:12:00,
2013-04-08 05:22:00,36.0,17.0,-100.00,SSW,210,8.0,12.0,44,-99.99,,,-99.99,,2013-04-08 11:22:00,
2013-04-08 05:32:00,36.0,16.0,-100.00,SSW,200,7.0,12.0,44,-99.99,,,-99.99,,2013-04-08 11:32:00,
2013-04-08 05:42:00,35.0,16.0,-100.00,South,190,6.0,11.0,46,-99.99,,,-99.99,,2013-04-08 11:42:00,
2013-04-08 05:52:00,33.0,16.0,-100.00,SE,135,2.0,6.0,48,-99.99,,,-99.99,,2013-04-08 11:52:00,
2013-04-08 06:03:00,33.0,16.0,-100.00,SSE,165,1.0,4.0,49,-99.99,,,-99.99,,2013-04-08 12:03:00,
2013-04-08 06:12:00,33.0,16.0,-100.00,SSW,195,2.0,4.0,49,-99.99,,,-99.99,,2013-04-08 12:12:00,
2013-04-08 06:22:00,37.0,17.0,-100.00,SSW,205,7.0,9.0,43,-99.99,,,-99.99,,2013-04-08 12:22:00,
2013-04-08 06:33:00,34.0,17.0,-100.00,SSW,195,4.0,9.0,48,-99.99,,,-99.99,,2013-04-08 12:33:00,
2013-04-08 06:42:00,35.0,17.0,-100.00,SW,230,3.0,6.0,46,-99.99,,,-99.99,,2013-04-08 12:42:00,
2013-04-08 06:52:00,37.0,17.0,-100.00,WSW,240,6.0,6.0,43,-99.99,,,-99.99,,2013-04-08 12:52:00,
2013-04-08 07:02:00,35.0,18.0,-100.00,WNW,300,4.0,6.0,48,-99.99,,,-99.99,,2013-04-08 13:02:00,
2013-04-08 07:12:00,33.0,18.0,-100.00,NW,310,4.0,7.0,54,-99.99,,,-99.99,,2013-04-08 13:12:00,
2013-04-08 07:22:00,34.0,18.0,-100.00,NW,310,4.0,5.0,51,-99.99,,,-99.99,,2013-04-08 13:22:00,
2013-04-08 07:32:00,35.0,17.0,-100.00,WNW,295,2.0,4.0,47,-99.99,,,-99.99,,2013-04-08 13:32:00,
2013-04-08 07:42:00,36.0,17.0,-100.00,SW,220,1.0,2.0,46,-99.99,,,-99.99,,2013-04-08 13:42:00,
2013-04-08 07:52:00,37.0,18.0,-100.00,SW,215,2.0,2.0,45,-99.99,,,-99.99,,2013-04-08 13:52:00,
2013-04-08 08:02:00,37.0,18.0,-100.00,SSE,165,3.0,4.0,45,-99.99,,,-99.99,,2013-04-08 14:02:00,
2013-04-08 08:12:00,38.0,18.0,-100.00,South,185,4.0,4.0,45,-99.99,,,-99.99,,2013-04-08 14:12:00,
2013-04-08 08:32:00,38.0,20.0,-100.00,South,170,5.0,6.0,49,-99.99,,,-99.99,,2013-04-08 14:32:00,
2013-04-08 08:42:00,38.0,20.0,-100.00,SSE,155,6.0,9.0,48,-99.99,,,-99.99,,2013-04-08 14:42:00,
2013-04-08 08:52:00,37.0,21.0,-100.00,SSE,160,8.0,10.0,50,-99.99,,,-99.99,,2013-04-08 14:52:00,
2013-04-08 09:02:00,38.0,22.0,-100.00,SSE,160,7.0,9.0,51,-99.99,,,-99.99,,2013-04-08 15:02:00,
2013-04-08 09:12:00,38.0,22.0,-100.00,SSE,155,7.0,9.0,51,-99.99,,,-99.99,,2013-04-08 15:12:00,
2013-04-08 09:33:00,38.0,23.0,-100.00,SE,135,11.0,14.0,54,-99.99,,,-99.99,,2013-04-08 15:33:00,
2013-04-08 09:42:00,39.0,23.0,-100.00,SE,140,11.0,16.0,53,-99.99,,,-99.99,,2013-04-08 15:42:00,
2013-04-08 09:52:00,39.0,24.0,-100.00,SE,135,11.0,15.0,53,-99.99,,,-99.99,,2013-04-08 15:52:00,
2013-04-08 10:03:00,40.0,25.0,-100.00,ESE,120,10.0,15.0,54,-99.99,,,-99.99,,2013-04-08 16:03:00,
2013-04-08 10:13:00,40.0,24.0,-100.00,ESE,115,11.0,13.0,52,-99.99,,,-99.99,,2013-04-08 16:13:00,
2013-04-08 10:22:00,41.0,24.0,-100.00,ESE,120,13.0,16.0,50,-99.99,,,-99.99,,2013-04-08 16:22:00,
2013-04-08 10:32:00,41.0,24.0,-100.00,ESE,120,13.0,16.0,50,-99.99,,,-99.99,,2013-04-08 16:32:00,
2013-04-08 10:42:00,43.0,25.0,-100.00,SE,130,16.0,19.0,47,-99.99,,,-99.99,,2013-04-08 16:42:00,
2013-04-08 10:52:00,44.0,24.0,-100.00,SE,125,17.0,22.0,44,-99.99,,,-99.99,,2013-04-08 16:52:00,
2013-04-08 11:03:00,45.0,25.0,-100.00,SE,145,12.0,19.0,44,-99.99,,,-99.99,,2013-04-08 17:03:00,
2013-04-08 11:12:00,44.0,24.0,-100.00,ESE,120,16.0,21.0,44,-99.99,,,-99.99,,2013-04-08 17:12:00,
2013-04-08 11:22:00,44.0,23.0,-100.00,ESE,110,17.0,21.0,43,-99.99,,,-99.99,,2013-04-08 17:22:00,
2013-04-08 11:32:00,44.0,23.0,-100.00,ESE,105,17.0,21.0,43,-99.99,,,-99.99,,2013-04-08 17:32:00,
2013-04-08 11:43:00,44.0,23.0,-100.00,ESE,115,16.0,22.0,43,-99.99,,,-99.99,,2013-04-08 17:43:00,
2013-04-08 11:52:00,44.0,23.0,-100.00,East,100,17.0,21.0,43,-99.99,,,-99.99,,2013-04-08 17:52:00,
2013-04-08 12:02:00,45.0,23.0,-100.00,ESE,105,16.0,21.0,42,-99.99,,,-99.99,,2013-04-08 18:02:00,
2013-04-08 12:12:00,45.0,23.0,-100.00,East,90,15.0,22.0,42,-99.99,,,-99.99,,2013-04-08 18:12:00,
2013-04-08 12:22:00,45.0,23.0,-100.00,ESE,105,19.0,24.0,41,-99.99,,,-99.99,,2013-04-08 18:22:00,
2013-04-08 12:32:00,45.0,23.0,-100.00,ESE,110,19.0,29.0,40,-99.99,,,-99.99,,2013-04-08 18:32:00,
2013-04-08 12:42:00,45.0,23.0,-100.00,ESE,110,21.0,27.0,41,-99.99,,,-99.99,,2013-04-08 18:42:00,
2013-04-08 12:52:00,45.0,24.0,-100.00,East,100,17.0,27.0,42,-99.99,,,-99.99,,2013-04-08 18:52:00,
2013-04-08 13:02:00,46.0,24.0,-100.00,ESE,115,19.0,29.0,41,-99.99,,,-99.99,,2013-04-08 19:02:00,
2013-04-08 13:12:00,48.0,25.0,-100.00,ESE,115,22.0,29.0,40,-99.99,,,-99.99,,2013-04-08 19:12:00,
2013-04-08 13:22:00,48.0,24.0,-100.00,SE,125,24.0,31.0,38,-99.99,,,-99.99,,2013-04-08 19:22:00,
2013-04-08 13:33:00,48.0,23.0,-100.00,ESE,110,23.0,31.0,37,-99.99,,,-99.99,,2013-04-08 19:33:00,
2013-04-08 13:42:00,43.0,20.0,-100.00,ENE,65,22.0,29.0,40,-99.99,,,-99.99,,2013-04-08 19:42:00,
2013-04-08 13:52:00,39.0,22.0,-100.00,NE,55,25.0,30.0,50,-99.99,,,-99.99,,2013-04-08 19:52:00,
2013-04-08 14:02:00,38.0,24.0,-100.00,ENE,60,20.0,34.0,58,-99.99,,,-99.99,,2013-04-08 20:02:00,
2013-04-08 14:12:00,38.0,26.0,-100.00,NE,55,17.0,28.0,62,-99.99,,,-99.99,,2013-04-08 20:12:00,
2013-04-08 14:22:00,37.0,27.0,-100.00,NE,45,21.0,28.0,65,-99.99,,,-99.99,,2013-04-08 20:22:00,
2013-04-08 14:33:00,38.0,28.0,-100.00,ENE,60,21.0,28.0,66,-99.99,,,-99.99,,2013-04-08 20:33:00,
2013-04-08 14:42:00,37.0,29.0,-100.00,NE,50,26.0,30.0,72,-99.99,,,-99.99,,2013-04-08 20:42:00,
2013-04-08 14:52:00,36.0,29.0,-100.00,NE,50,26.0,35.0,77,-99.99,,,-99.99,,2013-04-08 20:52:00,
2013-04-08 15:02:00,35.0,30.0,-100.00,NE,50,26.0,32.0,83,-99.99,,,-99.99,,2013-04-08 21:02:00,
2013-04-08 15:12:00,35.0,31.0,-100.00,NE,50,21.0,31.0,86,-99.99,,,-99.99,,2013-04-08 21:12:00,
2013-04-08 15:22:00,35.0,32.0,-100.00,ENE,60,25.0,37.0,91,-99.99,,,-99.99,,2013-04-08 21:22:00,
2013-04-08 15:32:00,34.0,33.0,-100.00,NE,55,23.0,34.0,95,-99.99,,,-99.99,,2013-04-08 21:32:00,
2013-04-08 15:43:00,33.0,33.0,-100.00,NE,45,26.0,32.0,97,-99.99,,,-99.99,,2013-04-08 21:43:00,
2013-04-08 15:52:00,34.0,34.0,-100.00,NE,55,17.0,32.0,98,-99.99,,,-99.99,,2013-04-08 21:52:00,
2013-04-08 16:03:00,35.0,33.0,-100.00,NE,50,27.0,35.0,94,-99.99,,,-99.99,,2013-04-08 22:03:00,
2013-04-08 16:22:00,31.0,31.0,-100.00,NE,45,29.0,37.0,96,-99.99,,,-99.99,,2013-04-08 22:22:00,
2013-04-08 16:32:00,31.0,31.0,-100.00,NE,45,29.0,37.0,96,-99.99,,,-99.99,,2013-04-08 22:32:00,
2013-04-08 16:52:00,29.0,29.0,-100.00,NE,55,21.0,37.0,99,-99.99,,,-99.99,,2013-04-08 22:52:00,
2013-04-08 17:02:00,28.0,28.0,-100.00,NE,45,26.0,35.0,99,-99.99,,,-99.99,,2013-04-08 23:02:00,
2013-04-08 17:12:00,28.0,28.0,-100.00,NE,45,27.0,33.0,99,-99.99,,,-99.99,,2013-04-08 23:12:00,
2013-04-08 17:22:00,28.0,28.0,-100.00,NE,45,27.0,33.0,99,-99.99,,,-99.99,,2013-04-08 23:22:00,
2013-04-08 17:32:00,27.0,27.0,-100.00,NE,45,25.0,34.0,99,-99.99,,,-99.99,,2013-04-08 23:32:00,
2013-04-08 17:42:00,25.0,25.0,-100.00,NE,55,17.0,34.0,99,-99.99,,,-99.99,,2013-04-08 23:42:00,
2013-04-08 17:52:00,26.0,26.0,-100.00,NE,50,21.0,30.0,99,-99.99,,,-99.99,,2013-04-08 23:52:00,
2013-04-08 18:02:00,26.0,26.0,-100.00,NE,40,22.0,32.0,99,-99.99,,,-99.99,,2013-04-09 00:02:00,
2013-04-08 18:12:00,26.0,26.0,-100.00,NE,40,24.0,29.0,99,-99.99,,,-99.99,,2013-04-09 00:12:00,
2013-04-08 18:22:00,25.0,25.0,-100.00,NE,40,25.0,31.0,99,-99.99,,,-99.99,,2013-04-09 00:22:00,
2013-04-08 18:32:00,24.0,24.0,-100.00,NE,40,26.0,34.0,99,-99.99,,,-99.99,,2013-04-09 00:32:00,
2013-04-08 18:42:00,24.0,24.0,-100.00,NE,45,27.0,31.0,99,-99.99,,,-99.99,,2013-04-09 00:42:00,
2013-04-08 18:52:00,23.0,23.0,-100.00,NE,50,27.0,35.0,99,-99.99,,,-99.99,,2013-04-09 00:52:00,
2013-04-08 19:02:00,22.0,22.0,-100.00,NE,40,29.0,37.0,99,-99.99,,,-99.99,,2013-04-09 01:02:00,
2013-04-08 19:12:00,22.0,22.0,-100.00,NE,35,27.0,39.0,99,-99.99,,,-99.99,,2013-04-09 01:12:00,
2013-04-08 19:22:00,22.0,22.0,-100.00,NE,35,29.0,39.0,99,-99.99,,,-99.99,,2013-04-09 01:22:00,
2013-04-08 19:33:00,21.0,21.0,-100.00,NE,35,27.0,37.0,99,-99.99,,,-99.99,,2013-04-09 01:33:00,
2013-04-08 19:42:00,21.0,21.0,-100.00,NNE,30,28.0,39.0,99,-99.99,,,-99.99,,2013-04-09 01:42:00,
2013-04-08 19:52:00,20.0,20.0,-100.00,NE,45,26.0,36.0,99,-99.99,,,-99.99,,2013-04-09 01:52:00,
2013-04-08 20:02:00,19.0,19.0,-100.00,NE,35,32.0,39.0,99,-99.99,,,-99.99,,2013-04-09 02:02:00,
2013-04-08 20:12:00,19.0,19.0,-100.00,NE,35,29.0,39.0,99,-99.99,,,-99.99,,2013-04-09 02:12:00,
2013-04-08 20:22:00,18.0,18.0,-100.00,NE,40,29.0,35.0,99,-99.99,,,-99.99,,2013-04-09 02:22:00,
2013-04-08 20:32:00,18.0,18.0,-100.00,NNE,30,27.0,38.0,99,-99.99,,,-99.99,,2013-04-09 02:32:00,
2013-04-08 20:42:00,18.0,18.0,-100.00,NE,55,24.0,34.0,99,-99.99,,,-99.99,,2013-04-09 02:42:00,
2013-04-08 20:52:00,18.0,18.0,-100.00,NE,35,23.0,36.0,99,-99.99,,,-99.99,,2013-04-09 02:52:00,
2013-04-08 21:02:00,17.0,17.0,-100.00,NNE,25,24.0,35.0,99,-99.99,,,-99.99,,2013-04-09 03:02:00,
2013-04-08 21:12:00,17.0,17.0,-100.00,NE,35,16.0,30.0,99,-99.99,,,-99.99,,2013-04-09 03:12:00,
2013-04-08 21:21:00,16.0,16.0,-100.00,NNE,15,16.0,27.0,99,-99.99,,,-99.99,,2013-04-09 03:21:00,
2013-04-08 21:33:00,16.0,16.0,-100.00,North,0,20.0,27.0,99,-99.99,,,-99.99,,2013-04-09 03:33:00,
2013-04-08 21:52:00,16.0,16.0,-100.00,North,0,17.0,27.0,99,-99.99,,,-99.99,,2013-04-09 03:52:00,
2013-04-08 22:03:00,16.0,15.0,-100.00,NW,325,13.0,19.0,97,-99.99,,,-99.99,,2013-04-09 04:03:00,
2013-04-08 22:13:00,15.0,15.0,-100.00,NNW,340,15.0,22.0,96,-99.99,,,-99.99,,2013-04-09 04:13:00,
2013-04-08 22:23:00,15.0,14.0,-100.00,North,0,12.0,21.0,97,-99.99,,,-99.99,,2013-04-09 04:23:00,
2013-04-08 22:32:00,15.0,14.0,-100.00,North,0,16.0,22.0,97,-99.99,,,-99.99,,2013-04-09 04:32:00,
2013-04-08 22:42:00,15.0,14.0,-100.00,North,355,12.0,17.0,96,-99.99,,,-99.99,,2013-04-09 04:42:00,
2013-04-08 22:52:00,15.0,14.0,-100.00,North,355,12.0,17.0,96,-99.99,,,-99.99,,2013-04-09 04:52:00,
2013-04-08 23:02:00,14.0,13.0,-100.00,NNW,345,20.0,24.0,96,-99.99,,,-99.99,,2013-04-09 05:02:00,
2013-04-08 23:12:00,13.0,12.0,-100.00,North,355,21.0,28.0,96,-99.99,,,-99.99,,2013-04-09 05:12:00,
2013-04-08 23:22:00,13.0,12.0,-100.00,North,0,20.0,26.0,96,-99.99,,,-99.99,,2013-04-09 05:22:00,
2013-04-08 23:32:00,14.0,14.0,-100.00,North,350,15.0,22.0,99,-99.99,,,-99.99,,2013-04-09 05:32:00,
2013-04-08 23:42:00,13.0,12.0,-100.00,North,0,13.0,21.0,96,-99.99,,,-99.99,,2013-04-09 05:42:00,
2013-04-08 23:52:00,13.0,13.0,-100.00,NW,325,16.0,18.0,99,-99.99,,,-99.99,,2013-04-09 05:52:00,